Time;durP1;ratioP1;P1;durP2;ratioP2;P2;SDS_P1;SDS_P2;PMS_P1;PMS_P2;Temp;Humidity;BMP_temperature;BMP_pressure;BME280_temperature;BME280_humidity;BME280_pressure;Samples;Min_cycle;Max_cycle;Signal;HPM_P1;HPM_P2
2023/09/15 00:00:30;;;;;;;2.47;2.27;;;;;;;14.79;83.12;102223.59;6158811;28;20242;-69
2023/09/15 00:03:52;;;;;;;2.10;1.83;;;;;;;14.70;83.20;102222.53;6159313;28;20616;-69
2023/09/15 00:07:14;;;;;;;3.50;2.60;;;;;;;14.62;83.59;102224.16;6156538;28;20242;-68
2023/09/15 00:10:35;;;;;;;4.90;1.90;;;;;;;14.42;84.21;102217.66;6161501;28;20223;-68
2023/09/15 00:13:58;;;;;;;4.63;2.83;;;;;;;14.35;84.42;102224.63;6158061;28;20234;-69
2023/09/15 00:17:19;;;;;;;3.67;2.17;;;;;;;14.53;84.37;102223.06;6157326;28;20239;-70
2023/09/15 00:20:41;;;;;;;3.40;1.80;;;;;;;14.43;84.31;102224.84;6158329;28;20235;-68
2023/09/15 00:24:02;;;;;;;3.80;2.20;;;;;;;14.38;84.33;102227.06;6158937;28;20234;-69
2023/09/15 00:27:23;;;;;;;2.03;1.77;;;;;;;14.37;84.68;102226.19;6158212;28;20227;-68
2023/09/15 00:30:45;;;;;;;3.33;2.57;;;;;;;14.13;85.22;102224.63;6157628;28;20488;-69
2023/09/15 00:34:06;;;;;;;3.50;2.43;;;;;;;14.15;85.45;102222.63;6156507;28;20263;-68
2023/09/15 00:37:27;;;;;;;3.40;2.03;;;;;;;13.93;86.13;102223.56;6157890;28;20519;-68
2023/09/15 00:40:49;;;;;;;2.50;2.30;;;;;;;13.97;86.66;102226.88;6158344;28;20235;-68
2023/09/15 00:44:11;;;;;;;3.90;2.47;;;;;;;14.03;86.78;102223.66;6143285;28;20743;-68
2023/09/15 00:47:34;;;;;;;2.77;2.57;;;;;;;14.06;86.55;102229.69;6138615;28;20226;-68
2023/09/15 00:50:56;;;;;;;3.97;3.37;;;;;;;14.03;86.76;102227.22;6157090;28;20314;-68
2023/09/15 00:54:17;;;;;;;3.07;1.93;;;;;;;13.94;86.90;102214.41;6153982;28;20545;-68
2023/09/15 00:57:38;;;;;;;1.93;1.83;;;;;;;13.91;87.03;102217.41;6150823;28;20239;-69
2023/09/15 01:01:00;;;;;;;3.17;2.30;;;;;;;13.87;87.21;102215.88;6157737;28;20316;-68
2023/09/15 01:04:22;;;;;;;4.97;2.27;;;;;;;13.89;86.63;102216.66;6155616;28;20600;-68
2023/09/15 01:07:46;;;;;;;2.90;2.27;;;;;;;13.90;86.92;102217.50;6146527;28;20230;-68
2023/09/15 01:11:06;;;;;;;2.37;2.17;;;;;;;13.88;87.17;102217.63;6156098;28;20305;-68
2023/09/15 01:14:28;;;;;;;1.67;1.57;;;;;;;13.84;86.77;102212.56;6143321;28;20231;-68
2023/09/15 01:17:56;;;;;;;3.23;2.03;;;;;;;13.68;86.88;102210.25;6149829;28;20219;-68
2023/09/15 01:21:55;;;;;;;1.70;1.60;;;;;;;13.70;87.16;102205.56;6158032;28;20285;-68
2023/09/15 01:25:30;;;;;;;1.40;1.30;;;;;;;13.68;86.63;102203.97;6157313;28;20230;-67
2023/09/15 01:29:14;;;;;;;2.53;2.00;;;;;;;13.72;86.54;102203.59;6155134;28;20548;-68
2023/09/15 01:32:38;;;;;;;1.50;1.40;;;;;;;13.57;86.52;102200.28;6152495;28;20270;-69
2023/09/15 01:35:59;;;;;;;2.00;1.43;;;;;;;13.55;86.59;102199.53;6157484;28;20660;-69
2023/09/15 01:39:20;;;;;;;2.47;1.47;;;;;;;13.55;86.29;102195.97;6139246;28;20226;-69
2023/09/15 01:42:43;;;;;;;1.40;1.30;;;;;;;13.53;86.35;102193.38;6141580;28;20242;-69
2023/09/15 01:46:04;;;;;;;1.87;1.27;;;;;;;13.48;86.08;102198.28;6155698;28;20230;-69
2023/09/15 01:49:28;;;;;;;1.80;1.50;;;;;;;13.47;86.71;102195.72;6136174;28;21440;-69
2023/09/15 01:52:49;;;;;;;1.50;1.40;;;;;;;13.47;86.64;102196.59;6155120;28;20226;-69
2023/09/15 01:56:10;;;;;;;3.30;1.53;;;;;;;13.49;86.69;102194.63;6142929;28;20238;-70
2023/09/15 01:59:33;;;;;;;2.07;1.53;;;;;;;13.44;86.13;102195.94;6139863;28;20239;-68
2023/09/15 02:03:35;;;;;;;1.93;1.33;;;;;;;13.31;86.64;102190.63;6128895;28;20329;-68
2023/09/15 02:06:57;;;;;;;1.93;1.50;;;;;;;13.17;86.78;102195.41;6128241;28;20242;-69
2023/09/15 02:10:19;;;;;;;2.17;1.50;;;;;;;13.07;87.55;102203.41;6152911;28;20679;-69
2023/09/15 02:13:40;;;;;;;2.20;1.27;;;;;;;13.11;87.52;102195.91;6150972;28;20231;-69
2023/09/15 02:17:03;;;;;;;3.10;1.57;;;;;;;13.00;87.98;102194.00;6157288;28;20616;-68
2023/09/15 02:20:24;;;;;;;2.03;1.33;;;;;;;12.99;88.26;102197.69;6156260;28;20238;-69
2023/09/15 02:23:47;;;;;;;1.93;1.80;;;;;;;13.04;87.44;102186.53;6139811;28;20230;-67
2023/09/15 02:27:07;;;;;;;1.90;1.80;;;;;;;13.07;87.38;102189.00;6151519;28;20246;-69
2023/09/15 02:30:28;;;;;;;4.13;1.90;;;;;;;13.02;86.94;102194.75;6141535;28;20242;-69
2023/09/15 02:33:49;;;;;;;1.33;1.23;;;;;;;12.96;87.18;102186.22;6138308;28;20238;-69
2023/09/15 02:37:10;;;;;;;2.13;1.80;;;;;;;12.98;87.76;102189.69;6154982;28;20251;-69
2023/09/15 02:40:33;;;;;;;3.67;2.13;;;;;;;12.91;87.70;102178.50;6136834;28;20350;-69
2023/09/15 02:43:54;;;;;;;1.60;1.50;;;;;;;12.92;87.84;102184.75;6148389;28;20230;-69
2023/09/15 02:47:15;;;;;;;2.83;1.77;;;;;;;12.97;86.86;102182.56;6136179;28;20246;-68
2023/09/15 02:50:41;;;;;;;2.77;1.80;;;;;;;12.90;87.48;102179.47;6151997;28;20246;-67
2023/09/15 02:54:03;;;;;;;2.93;1.40;;;;;;;12.83;87.81;102179.06;6150510;28;20544;-68
2023/09/15 02:57:25;;;;;;;1.57;1.47;;;;;;;12.83;87.80;102176.38;6139892;28;20608;-68
2023/09/15 03:00:47;;;;;;;1.77;1.63;;;;;;;12.66;88.54;102179.50;6150548;28;20243;-68
2023/09/15 03:04:09;;;;;;;2.90;1.83;;;;;;;12.68;88.75;102171.28;6139989;28;20250;-68
2023/09/15 03:07:31;;;;;;;1.90;1.67;;;;;;;12.66;88.92;102174.09;6139944;28;20238;-68
2023/09/15 03:10:53;;;;;;;1.40;1.30;;;;;;;12.56;89.37;102178.47;6135495;28;20230;-68
2023/09/15 03:14:18;;;;;;;2.47;2.27;;;;;;;12.56;88.99;102169.50;6134958;28;20230;-68
2023/09/15 03:17:39;;;;;;;2.10;1.73;;;;;;;12.48;88.84;102171.94;6145396;28;20567;-68
2023/09/15 03:21:02;;;;;;;1.93;1.70;;;;;;;12.42;89.65;102169.69;6133427;28;20245;-68
2023/09/15 03:24:23;;;;;;;1.50;1.40;;;;;;;12.52;89.38;102160.75;6149696;28;20235;-68
2023/09/15 03:27:45;;;;;;;1.67;1.57;;;;;;;12.53;89.88;102165.22;6135833;28;20239;-68
2023/09/15 03:31:08;;;;;;;1.40;1.30;;;;;;;12.57;89.33;102161.28;6152771;28;20569;-68
2023/09/15 03:34:29;;;;;;;2.87;1.90;;;;;;;12.53;89.60;102161.63;6138506;28;20326;-68
2023/09/15 03:37:51;;;;;;;6.27;1.97;;;;;;;12.46;89.61;102155.81;6149590;28;20241;-68
2023/09/15 03:41:15;;;;;;;2.03;1.90;;;;;;;12.42;90.08;102167.00;6149898;28;20345;-68
2023/09/15 03:44:36;;;;;;;3.00;1.90;;;;;;;12.52;90.22;102158.06;6141326;28;20239;-68
2023/09/15 03:47:58;;;;;;;2.63;2.17;;;;;;;12.52;90.40;102176.13;6138451;28;20279;-68
2023/09/15 03:51:20;;;;;;;2.90;1.70;;;;;;;12.40;89.81;102172.53;6140056;28;20501;-68
2023/09/15 03:54:41;;;;;;;1.67;1.57;;;;;;;12.43;90.18;102164.16;6154262;28;20683;-68
2023/09/15 03:58:02;;;;;;;2.87;1.67;;;;;;;12.46;90.82;102161.22;6150945;28;20243;-68
2023/09/15 04:01:24;;;;;;;3.13;2.13;;;;;;;12.44;90.23;102159.63;6152330;28;20322;-68
2023/09/15 04:04:46;;;;;;;2.10;1.60;;;;;;;12.42;90.49;102167.84;6152721;28;20222;-69
2023/09/15 04:08:07;;;;;;;1.77;1.67;;;;;;;12.50;91.07;102162.72;6154461;28;20227;-68
2023/09/15 04:11:28;;;;;;;3.37;2.13;;;;;;;12.59;90.42;102156.63;6153468;28;20620;-69
2023/09/15 04:14:49;;;;;;;2.03;1.83;;;;;;;12.59;90.39;102158.47;6151691;28;20605;-69
2023/09/15 04:18:10;;;;;;;1.67;1.57;;;;;;;12.63;90.19;102162.66;6151175;28;20309;-69
2023/09/15 04:21:34;;;;;;;3.93;1.97;;;;;;;12.53;90.06;102164.34;6140996;28;20294;-69
2023/09/15 04:24:55;;;;;;;2.03;1.83;;;;;;;12.57;90.31;102165.81;6137432;28;20223;-68
2023/09/15 04:28:16;;;;;;;4.43;2.23;;;;;;;12.68;90.92;102157.75;6156154;28;20230;-68
2023/09/15 04:31:39;;;;;;;2.40;2.20;;;;;;;12.63;90.35;102163.53;6156383;28;20230;-68
2023/09/15 04:35:00;;;;;;;2.60;1.90;;;;;;;12.63;90.52;102165.34;6133188;28;20262;-69
2023/09/15 04:38:23;;;;;;;1.73;1.63;;;;;;;12.72;90.59;102162.78;6145516;28;20328;-68
2023/09/15 04:41:45;;;;;;;4.53;3.10;;;;;;;12.69;90.32;102157.63;6142626;28;20573;-68
2023/09/15 04:45:06;;;;;;;2.30;1.80;;;;;;;12.70;90.00;102156.63;6146791;28;20234;-68
2023/09/15 04:48:27;;;;;;;2.67;2.47;;;;;;;12.73;89.87;102156.41;6140356;28;20226;-68
2023/09/15 04:51:49;;;;;;;2.10;1.90;;;;;;;12.76;90.14;102163.44;6149778;28;20234;-68
2023/09/15 04:55:11;;;;;;;2.40;1.97;;;;;;;12.78;90.18;102162.34;6145127;28;20230;-68
2023/09/15 04:58:33;;;;;;;3.10;2.47;;;;;;;12.84;90.69;102153.75;6137314;28;20231;-68
2023/09/15 05:01:54;;;;;;;3.33;1.97;;;;;;;12.90;89.78;102157.81;6152207;28;20242;-68
2023/09/15 05:05:15;;;;;;;1.93;1.60;;;;;;;12.94;89.54;102162.00;6152789;28;20230;-68
2023/09/15 05:08:36;;;;;;;2.37;2.17;;;;;;;13.02;89.66;102166.81;6156456;28;20238;-69
2023/09/15 05:11:58;;;;;;;4.33;2.20;;;;;;;13.05;89.93;102167.47;6155659;28;20239;-69
2023/09/15 05:15:19;;;;;;;2.80;2.47;;;;;;;13.09;89.84;102173.50;6149376;28;20230;-66
2023/09/15 05:18:41;;;;;;;3.43;2.20;;;;;;;13.14;89.73;102171.31;6149919;28;20238;-65
2023/09/15 05:22:03;;;;;;;3.10;2.57;;;;;;;13.05;89.75;102166.59;6138019;28;20314;-67
2023/09/15 05:25:24;;;;;;;2.83;2.33;;;;;;;13.13;89.62;102166.84;6138696;28;20321;-66
2023/09/15 05:28:46;;;;;;;3.30;1.73;;;;;;;13.14;89.68;102171.31;6134973;28;20798;-66
2023/09/15 05:32:07;;;;;;;3.33;2.10;;;;;;;13.21;89.68;102175.25;6126712;28;20904;-68
2023/09/15 05:35:28;;;;;;;3.27;2.17;;;;;;;13.12;89.26;102182.22;6147363;28;20230;-68
2023/09/15 05:38:49;;;;;;;3.00;2.67;;;;;;;12.95;89.99;102185.41;6124185;28;20854;-68
2023/09/15 05:42:10;;;;;;;3.40;2.23;;;;;;;13.06;90.47;102177.31;6151712;28;20619;-67
2023/09/15 05:45:33;;;;;;;1.80;1.57;;;;;;;13.22;90.60;102180.56;6149198;28;20230;-67
2023/09/15 05:48:54;;;;;;;2.17;1.77;;;;;;;13.25;90.11;102176.72;6151724;28;20226;-66
2023/09/15 05:52:15;;;;;;;4.97;3.10;;;;;;;13.35;90.07;102178.56;6154839;28;20305;-66
2023/09/15 05:55:36;;;;;;;2.63;2.43;;;;;;;13.39;89.95;102176.50;6140005;28;20234;-66
2023/09/15 05:58:58;;;;;;;3.00;1.83;;;;;;;13.30;89.62;102175.38;6140955;28;20604;-67
2023/09/15 06:02:20;;;;;;;4.10;2.53;;;;;;;13.34;90.10;102174.16;6138806;28;20254;-66
2023/09/15 06:05:41;;;;;;;3.37;2.87;;;;;;;13.34;90.06;102176.88;6131639;28;20262;-67
2023/09/15 06:09:01;;;;;;;5.07;3.20;;;;;;;13.43;90.13;102184.25;6136293;28;20242;-68
2023/09/15 06:12:22;;;;;;;4.00;2.77;;;;;;;13.44;89.89;102179.69;6131215;28;20243;-68
2023/09/15 06:15:43;;;;;;;3.93;1.83;;;;;;;13.63;89.45;102177.22;6128494;28;20679;-67
2023/09/15 06:19:06;;;;;;;6.00;2.53;;;;;;;13.63;89.66;102179.94;6134825;28;20246;-68
2023/09/15 06:22:28;;;;;;;2.67;1.90;;;;;;;13.63;89.25;102174.53;6131304;28;20234;-67
2023/09/15 06:25:50;;;;;;;1.90;1.70;;;;;;;13.69;89.10;102179.44;6130835;28;20226;-68
2023/09/15 06:29:15;;;;;;;9.40;2.90;;;;;;;13.84;88.94;102178.19;6141905;28;20681;-68
2023/09/15 06:32:36;;;;;;;2.93;2.13;;;;;;;13.84;89.02;102186.34;6146249;28;20317;-68
2023/09/15 06:36:00;;;;;;;2.37;1.90;;;;;;;13.88;89.08;102186.94;6152951;28;20254;-67
2023/09/15 06:39:23;;;;;;;3.13;2.23;;;;;;;13.94;87.99;102184.59;6155387;28;20609;-69
2023/09/15 06:42:44;;;;;;;6.00;3.10;;;;;;;14.22;87.83;102175.03;6152089;28;20247;-68
2023/09/15 06:46:05;;;;;;;4.03;2.80;;;;;;;13.95;87.66;102185.47;6148200;28;20254;-67
2023/09/15 06:49:26;;;;;;;5.23;2.90;;;;;;;14.15;87.85;102185.53;6143486;28;20230;-67
2023/09/15 06:52:49;;;;;;;3.33;1.97;;;;;;;13.70;87.88;102183.03;6148162;28;20231;-68
2023/09/15 06:56:10;;;;;;;3.33;2.83;;;;;;;14.00;88.59;102181.38;6142775;28;20250;-67
2023/09/15 06:59:31;;;;;;;3.37;2.93;;;;;;;13.77;89.11;102195.94;6145034;28;20234;-67
2023/09/15 07:02:52;;;;;;;2.50;2.00;;;;;;;13.77;89.07;102181.56;6124077;28;20242;-68
2023/09/15 07:06:13;;;;;;;11.47;3.60;;;;;;;14.04;89.28;102185.56;6146189;28;20226;-68
2023/09/15 07:09:36;;;;;;;2.20;2.03;;;;;;;14.11;88.69;102183.19;6147058;28;20332;-68
2023/09/15 07:12:57;;;;;;;2.90;2.20;;;;;;;14.19;87.70;102178.88;6147539;28;21745;-68
2023/09/15 07:16:18;;;;;;;3.67;2.40;;;;;;;14.22;87.12;102180.47;6150394;28;20235;-67
2023/09/15 07:19:38;;;;;;;10.43;4.10;;;;;;;14.54;86.35;102169.66;6146402;28;20748;-67
2023/09/15 07:22:59;;;;;;;3.00;2.43;;;;;;;14.63;85.86;102172.44;6148659;28;20234;-67
2023/09/15 07:26:24;;;;;;;5.53;2.97;;;;;;;14.92;85.17;102162.66;6146275;28;20226;-68
2023/09/15 07:29:45;;;;;;;2.97;2.50;;;;;;;15.06;83.97;102164.19;6146619;28;20233;-67
2023/09/15 07:33:06;;;;;;;3.20;2.17;;;;;;;15.28;82.37;102169.47;6147369;28;20512;-65
2023/09/15 07:36:27;;;;;;;2.33;1.83;;;;;;;14.94;83.09;102166.09;6151774;28;20231;-65
2023/09/15 07:39:48;;;;;;;3.13;2.23;;;;;;;14.95;83.64;102165.13;6159007;28;20770;-65
2023/09/15 07:43:13;;;;;;;2.57;2.37;;;;;;;15.55;83.08;102163.47;6153751;28;20677;-65
2023/09/15 07:46:34;;;;;;;2.27;2.07;;;;;;;15.96;81.15;102160.59;6150548;28;20565;-65
2023/09/15 07:49:55;;;;;;;2.00;1.90;;;;;;;16.20;80.36;102155.66;6152801;28;20506;-66
2023/09/15 07:53:17;;;;;;;3.00;2.73;;;;;;;16.16;78.83;102151.50;6153663;28;20616;-65
2023/09/15 07:56:38;;;;;;;3.37;2.10;;;;;;;16.08;79.31;102151.34;6154688;28;20226;-66
2023/09/15 08:00:00;;;;;;;3.77;1.87;;;;;;;16.49;78.52;102159.28;6161325;28;20253;-64
2023/09/15 08:03:21;;;;;;;2.67;1.70;;;;;;;16.95;77.73;102155.81;6154331;28;20230;-64
2023/09/15 08:06:42;;;;;;;3.80;1.97;;;;;;;17.04;76.38;102154.94;6159253;28;20230;-63
2023/09/15 08:10:04;;;;;;;3.13;2.27;;;;;;;16.88;75.88;102149.22;6160817;28;20234;-65
2023/09/15 08:13:25;;;;;;;2.47;2.07;;;;;;;17.02;75.65;102156.91;6162767;28;20226;-67
2023/09/15 08:16:48;;;;;;;2.80;2.00;;;;;;;16.89;76.08;102164.56;6151884;28;20226;-65
2023/09/15 08:20:11;;;;;;;4.53;2.72;;;;;;;17.28;75.00;102158.03;6146220;28;20273;-64
2023/09/15 08:23:32;;;;;;;5.50;2.50;;;;;;;17.10;74.88;102154.34;6145185;28;20239;-64
2023/09/15 08:26:53;;;;;;;3.35;1.60;;;;;;;17.51;75.31;102158.53;6155856;28;20226;-65
2023/09/15 08:30:14;;;;;;;4.32;2.75;;;;;;;17.61;74.21;102153.91;6159399;28;20314;-64
2023/09/15 08:33:37;;;;;;;4.32;1.98;;;;;;;18.07;73.34;102158.38;6158445;28;20519;-63
2023/09/15 08:36:57;;;;;;;1.83;1.67;;;;;;;17.92;72.51;102154.47;6160860;28;20631;-64
2023/09/15 08:40:20;;;;;;;2.10;1.90;;;;;;;18.13;72.77;102155.91;6156477;28;20573;-64
2023/09/15 08:43:42;;;;;;;2.47;1.95;;;;;;;17.69;72.16;102145.81;6161271;28;20239;-65
2023/09/15 08:47:06;;;;;;;2.97;1.48;;;;;;;17.97;72.98;102136.63;6143908;28;20256;-64
2023/09/15 08:50:29;;;;;;;3.53;1.80;;;;;;;18.33;72.56;102132.06;6149216;28;20310;-64
2023/09/15 08:53:51;;;;;;;4.80;2.58;;;;;;;17.62;71.84;102133.81;6146780;28;20235;-66
2023/09/15 08:57:12;;;;;;;1.88;1.35;;;;;;;18.03;71.88;102132.41;6142306;28;20326;-64
2023/09/15 09:00:34;;;;;;;2.97;2.15;;;;;;;17.98;71.26;102140.22;6139549;28;20234;-65
2023/09/15 09:03:55;;;;;;;1.77;1.67;;;;;;;18.19;70.25;102143.53;6140988;28;20313;-66
2023/09/15 09:07:20;;;;;;;2.72;1.88;;;;;;;18.23;70.31;102132.13;6147566;28;20239;-67
2023/09/15 09:10:41;;;;;;;1.52;1.35;;;;;;;18.76;69.89;102134.00;6144848;28;20234;-65
2023/09/15 09:14:05;;;;;;;4.10;1.75;;;;;;;19.06;67.80;102133.56;6140365;28;20322;-64
2023/09/15 09:17:26;;;;;;;3.50;2.20;;;;;;;19.06;66.77;102128.09;6152106;28;20231;-64
2023/09/15 09:20:49;;;;;;;2.67;1.83;;;;;;;18.74;67.89;102131.44;6148537;28;20257;-64
2023/09/15 09:24:12;;;;;;;2.80;1.58;;;;;;;18.70;66.88;102126.44;6153375;28;20238;-65
2023/09/15 09:27:34;;;;;;;2.63;1.90;;;;;;;18.63;66.40;102125.38;6164345;28;20226;-65
2023/09/15 09:30:55;;;;;;;2.88;1.60;;;;;;;18.84;67.20;102132.19;6163519;28;20238;-64
2023/09/15 09:34:18;;;;;;;6.25;2.15;;;;;;;19.03;65.39;102117.47;6161515;28;20858;-65
2023/09/15 09:37:39;;;;;;;3.60;1.88;;;;;;;19.53;64.80;102125.81;6162276;28;20230;-64
2023/09/15 09:41:04;;;;;;;2.95;2.20;;;;;;;19.83;63.20;102112.47;6149566;28;20357;-65
2023/09/15 09:44:25;;;;;;;2.40;1.55;;;;;;;20.16;62.92;102113.41;6155923;28;20234;-64
2023/09/15 09:47:46;;;;;;;8.02;2.33;;;;;;;19.33;61.52;102108.78;6154726;28;20313;-65
2023/09/15 09:51:07;;;;;;;7.32;1.95;;;;;;;19.87;62.34;102107.50;6161726;28;20649;-66
2023/09/15 09:54:28;;;;;;;2.50;2.30;;;;;;;19.85;61.88;102102.19;6160271;28;20218;-64
2023/09/15 09:57:51;;;;;;;1.95;1.50;;;;;;;19.92;60.62;102092.28;6150740;28;20231;-63
2023/09/15 10:01:12;;;;;;;3.15;1.70;;;;;;;20.00;61.51;102083.25;6128081;28;20317;-64
2023/09/15 10:04:33;;;;;;;4.55;2.28;;;;;;;20.19;60.28;102082.09;6152866;28;20246;-65
2023/09/15 10:07:54;;;;;;;2.40;1.83;;;;;;;20.13;61.24;102082.75;6150978;28;20226;-68
2023/09/15 10:11:16;;;;;;;2.53;1.75;;;;;;;20.28;60.96;102076.47;6148337;28;20231;-67
2023/09/15 10:14:39;;;;;;;3.58;1.75;;;;;;;20.52;60.33;102078.38;6151418;28;20318;-67
2023/09/15 10:18:00;;;;;;;5.70;2.28;;;;;;;20.68;59.71;102062.78;6154766;28;20243;-67
2023/09/15 10:21:21;;;;;;;3.00;2.40;;;;;;;20.69;59.84;102069.13;6137451;28;20541;-67
2023/09/15 10:24:47;;;;;;;3.10;2.22;;;;;;;20.85;59.11;102079.19;6152496;28;20548;-67
2023/09/15 10:28:08;;;;;;;2.60;1.75;;;;;;;20.64;58.98;102076.97;6150911;28;20234;-66
2023/09/15 10:31:35;;;;;;;3.05;2.30;;;;;;;21.21;59.13;102062.19;6135414;28;20239;-68
2023/09/15 10:34:56;;;;;;;3.70;2.65;;;;;;;22.05;56.88;102055.97;6155128;28;20268;-68
2023/09/15 10:38:27;;;;;;;3.13;2.13;;;;;;;21.35;57.62;102061.44;6143004;28;20227;-67
2023/09/15 10:41:48;;;;;;;2.65;2.17;;;;;;;22.02;56.83;102051.69;6150578;28;20230;-68
2023/09/15 10:45:12;;;;;;;5.80;2.47;;;;;;;22.74;56.17;102063.13;6156529;28;20242;-69
2023/09/15 10:48:39;;;;;;;3.42;1.77;;;;;;;23.62;52.31;102044.78;6150967;28;21115;-66
2023/09/15 10:52:02;;;;;;;3.97;2.65;;;;;;;25.19;49.35;102047.16;6150278;28;20257;-68
2023/09/15 10:55:25;;;;;;;7.85;2.67;;;;;;;28.12;44.12;102038.34;6154870;28;20219;-68
2023/09/15 10:58:47;;;;;;;2.38;2.17;;;;;;;28.87;42.61;102040.94;6149067;28;20614;-65
2023/09/15 11:02:09;;;;;;;2.70;1.83;;;;;;;31.87;38.25;102030.94;6153359;28;20242;-67
2023/09/15 11:05:31;;;;;;;2.50;1.67;;;;;;;31.73;36.26;102035.13;6153635;28;20242;-68
2023/09/15 11:08:54;;;;;;;2.45;2.25;;;;;;;34.22;34.18;102021.75;6152300;28;20257;-68
2023/09/15 11:12:14;;;;;;;4.38;2.75;;;;;;;33.75;33.97;102029.06;6154678;28;20230;-67
2023/09/15 11:15:36;;;;;;;3.40;1.88;;;;;;;32.64;35.05;102029.34;6158953;28;20231;-67
2023/09/15 11:18:59;;;;;;;2.53;2.10;;;;;;;33.56;34.20;102016.50;6153567;28;20230;-68
2023/09/15 11:22:21;;;;;;;3.17;1.83;;;;;;;32.27;34.54;102013.03;6159677;28;20234;-67
2023/09/15 11:25:42;;;;;;;2.05;1.63;;;;;;;33.11;34.53;102008.31;6150817;28;20619;-69
2023/09/15 11:29:07;;;;;;;3.90;2.38;;;;;;;33.17;33.78;102012.84;6157064;28;20234;-69
2023/09/15 11:32:30;;;;;;;2.38;1.60;;;;;;;33.80;32.43;102004.75;6159502;28;20261;-69
2023/09/15 11:35:51;;;;;;;3.05;1.95;;;;;;;30.45;36.00;102000.88;6153553;28;20242;-67
2023/09/15 11:39:15;;;;;;;5.00;2.47;;;;;;;30.97;36.36;101990.75;6153791;28;20254;-67
2023/09/15 11:42:36;;;;;;;2.15;1.95;;;;;;;33.17;33.30;101989.66;6154538;28;20234;-68
2023/09/15 11:45:58;;;;;;;1.75;1.40;;;;;;;32.77;33.75;101990.72;6159005;28;20628;-68
2023/09/15 11:49:21;;;;;;;2.50;1.95;;;;;;;34.20;31.83;101993.16;6160951;28;20234;-68
2023/09/15 11:52:42;;;;;;;2.63;2.38;;;;;;;34.73;31.85;101981.03;6158805;28;20230;-69
2023/09/15 11:56:05;;;;;;;2.35;2.15;;;;;;;34.87;31.38;101987.00;6161487;28;20238;-68
2023/09/15 11:59:26;;;;;;;3.78;2.28;;;;;;;34.88;30.76;101988.72;6156065;28;20238;-69
2023/09/15 12:02:49;;;;;;;2.53;1.98;;;;;;;35.64;30.71;101973.13;6161283;28;20222;-70
2023/09/15 12:06:12;;;;;;;2.10;1.90;;;;;;;30.42;34.93;101974.38;6160415;28;20246;-67
2023/09/15 12:09:33;;;;;;;3.00;1.67;;;;;;;33.26;33.15;101974.09;6157460;28;20316;-68
2023/09/15 12:12:58;;;;;;;2.95;1.83;;;;;;;34.81;31.53;101968.47;6158780;28;20323;-68
2023/09/15 12:16:21;;;;;;;1.95;1.38;;;;;;;35.42;30.29;101964.03;6157548;28;20214;-68
2023/09/15 12:19:42;;;;;;;7.10;6.35;;;;;;;35.68;30.38;101954.59;6160391;28;20265;-68
2023/09/15 12:23:11;;;;;;;4.20;2.35;;;;;;;34.22;30.65;101956.47;6158780;28;20227;-67
2023/09/15 12:26:32;;;;;;;2.70;2.42;;;;;;;34.34;31.57;101954.34;6160920;28;20238;-68
2023/09/15 12:29:54;;;;;;;2.58;2.25;;;;;;;36.13;29.85;101947.13;6164216;28;20230;-68
2023/09/15 12:33:18;;;;;;;1.83;1.60;;;;;;;35.17;29.57;101945.16;6167429;28;20723;-67
2023/09/15 12:36:39;;;;;;;2.47;2.03;;;;;;;35.27;30.30;101951.66;6168119;28;20235;-67
2023/09/15 12:40:00;;;;;;;2.85;2.65;;;;;;;36.15;29.64;101946.03;6153422;28;20501;-67
2023/09/15 12:43:21;;;;;;;2.28;1.80;;;;;;;35.37;29.88;101948.03;6159608;28;20337;-67
2023/09/15 12:46:43;;;;;;;2.55;1.60;;;;;;;34.72;30.45;101947.66;6156659;28;20235;-67
2023/09/15 12:50:06;;;;;;;2.60;1.85;;;;;;;31.74;33.48;101944.75;6161744;28;20238;-67
2023/09/15 12:53:26;;;;;;;2.20;1.80;;;;;;;30.78;34.51;101953.78;6162791;28;20227;-67
2023/09/15 12:56:52;;;;;;;1.55;1.45;;;;;;;33.14;32.12;101934.25;6163780;28;20230;-68
2023/09/15 13:00:14;;;;;;;2.13;1.92;;;;;;;31.85;34.03;101935.47;6159094;28;20223;-67
2023/09/15 13:03:36;;;;;;;2.95;1.88;;;;;;;31.54;34.56;101931.28;6153078;28;20802;-67
2023/09/15 13:06:57;;;;;;;5.00;2.10;;;;;;;29.31;36.12;101934.28;6161242;28;20911;-67
2023/09/15 13:10:18;;;;;;;2.83;1.60;;;;;;;29.76;37.28;101926.41;6163365;28;20325;-66
2023/09/15 13:13:39;;;;;;;4.10;2.13;;;;;;;29.88;36.01;101925.34;6154028;28;20234;-67
2023/09/15 13:17:00;;;;;;;3.00;2.05;;;;;;;32.33;34.76;101919.03;6157797;28;20242;-67
2023/09/15 13:20:23;;;;;;;1.98;1.77;;;;;;;33.16;33.26;101904.94;6150227;28;20612;-67
2023/09/15 13:23:43;;;;;;;1.95;1.75;;;;;;;30.70;35.64;101904.91;6156975;28;20238;-68
2023/09/15 13:27:05;;;;;;;2.05;1.77;;;;;;;30.69;35.87;101908.75;6155427;28;20261;-67
2023/09/15 13:30:26;;;;;;;5.53;5.03;;;;;;;32.66;33.88;101899.47;6155630;28;20234;-68
2023/09/15 13:33:46;;;;;;;2.35;1.58;;;;;;;32.90;33.64;101888.88;6155216;28;20589;-68
2023/09/15 13:37:10;;;;;;;2.17;1.70;;;;;;;33.58;32.47;101889.25;6147220;28;20235;-68
2023/09/15 13:40:31;;;;;;;2.05;1.70;;;;;;;33.99;32.81;101889.59;6147584;28;20261;-68
2023/09/15 13:43:52;;;;;;;1.83;1.52;;;;;;;34.22;31.96;101878.06;6138284;28;20535;-68
2023/09/15 13:47:13;;;;;;;2.70;1.67;;;;;;;34.41;31.25;101879.34;6147753;28;20266;-67
2023/09/15 13:50:34;;;;;;;1.77;1.48;;;;;;;33.86;32.05;101874.09;6143701;28;20226;-68
2023/09/15 13:53:56;;;;;;;2.47;2.22;;;;;;;34.35;31.85;101858.84;6134534;28;20226;-67
2023/09/15 13:57:17;;;;;;;2.83;2.03;;;;;;;31.84;34.05;101855.66;6143934;28;20242;-68
2023/09/15 14:00:54;;;;;;;2.40;2.20;;;;;;;33.67;32.57;101858.84;6132605;28;20406;-68
2023/09/15 14:04:17;;;;;;;2.33;2.00;;;;;;;32.16;33.21;101856.78;6129900;28;20640;-68
2023/09/15 14:07:38;;;;;;;2.03;1.73;;;;;;;32.68;33.76;101852.56;6140441;28;20297;-68
2023/09/15 14:11:00;;;;;;;1.65;1.38;;;;;;;31.37;34.84;101844.75;6146083;28;20238;-68
2023/09/15 14:14:21;;;;;;;3.35;3.00;;;;;;;32.16;34.11;101848.41;6154308;28;20403;-68
2023/09/15 14:17:42;;;;;;;4.32;2.08;;;;;;;31.85;34.97;101846.19;6156385;28;20234;-68
2023/09/15 14:21:03;;;;;;;4.03;1.90;;;;;;;32.33;34.77;101846.44;6161323;28;20234;-68
2023/09/15 14:24:26;;;;;;;4.35;1.52;;;;;;;31.54;35.49;101844.81;6160274;28;20230;-68
2023/09/15 14:27:48;;;;;;;6.40;1.98;;;;;;;30.00;37.26;101853.91;6152989;28;20542;-69
2023/09/15 14:31:09;;;;;;;5.15;4.65;;;;;;;30.89;37.05;101847.13;6154917;28;20480;-69
2023/09/15 14:34:30;;;;;;;3.28;2.05;;;;;;;31.41;36.18;101842.34;6137412;28;20329;-66
2023/09/15 14:37:51;;;;;;;2.25;1.70;;;;;;;29.75;38.47;101847.69;6152480;28;20231;-66
2023/09/15 14:41:12;;;;;;;3.30;2.55;;;;;;;28.78;40.15;101852.66;6153875;28;22622;-65
2023/09/15 14:44:34;;;;;;;3.35;1.77;;;;;;;28.52;40.85;101836.31;6152198;28;20249;-66
2023/09/15 14:48:02;;;;;;;7.05;2.15;;;;;;;29.29;40.02;101835.56;6156308;28;20250;-67
2023/09/15 14:51:23;;;;;;;3.65;2.33;;;;;;;27.61;41.98;101836.03;6148133;28;20234;-66
2023/09/15 14:54:44;;;;;;;2.22;2.03;;;;;;;28.05;41.62;101833.16;6153006;28;20313;-66
2023/09/15 14:58:05;;;;;;;1.80;1.55;;;;;;;27.84;41.97;101827.97;6152267;28;20238;-67
2023/09/15 15:01:28;;;;;;;5.57;5.03;;;;;;;27.50;43.11;101826.53;6148570;28;20313;-67
2023/09/15 15:04:48;;;;;;;4.57;2.67;;;;;;;27.29;43.56;101837.94;6143147;28;20254;-66
2023/09/15 15:08:09;;;;;;;2.65;1.98;;;;;;;25.69;45.78;101827.69;6140793;28;20262;-67
2023/09/15 15:11:30;;;;;;;2.60;2.13;;;;;;;25.79;45.70;101830.03;6158508;28;20862;-68
2023/09/15 15:14:51;;;;;;;2.75;1.65;;;;;;;25.51;46.61;101807.28;6126435;28;20294;-67
2023/09/15 15:18:17;;;;;;;3.28;1.75;;;;;;;26.20;45.97;101814.09;6158709;28;20313;-67
2023/09/15 15:21:38;;;;;;;3.53;2.38;;;;;;;25.65;46.39;101815.38;6147859;28;20230;-66
2023/09/15 15:24:59;;;;;;;2.45;2.10;;;;;;;25.47;46.58;101817.06;6143300;28;20317;-66
2023/09/15 15:28:20;;;;;;;3.00;2.70;;;;;;;26.13;46.14;101813.25;6157508;28;20258;-66
2023/09/15 15:31:41;;;;;;;2.00;1.73;;;;;;;25.85;45.78;101818.97;6159294;28;20238;-66
2023/09/15 15:35:04;;;;;;;2.65;1.67;;;;;;;25.82;45.38;101813.03;6143434;28;20238;-66
2023/09/15 15:38:25;;;;;;;1.77;1.67;;;;;;;26.24;44.79;101812.59;6146037;28;20243;-65